Time;durP1;ratioP1;P1;durP2;ratioP2;P2;SDS_P1;SDS_P2;PMS_P1;PMS_P2;Temp;Humidity;BMP_temperature;BMP_pressure;BME280_temperature;BME280_humidity;BME280_pressure;Samples;Min_cycle;Max_cycle;Signal;HPM_P1;HPM_P2
2024/03/31 00:00:05;;;;;;;4.60;0.40;;;11.80;99.90;;;;;;5129025;27;20735;-59
2024/03/31 00:02:34;;;;;;;0.50;0.30;;;11.90;99.90;;;;;;5127987;27;20793;-59
2024/03/31 00:05:00;;;;;;;0.70;0.30;;;12.00;99.90;;;;;;5133955;27;20440;-59
2024/03/31 00:07:27;;;;;;;6.23;0.43;;;12.00;99.90;;;;;;5130658;27;20443;-58
2024/03/31 00:09:53;;;;;;;2.53;0.30;;;12.00;99.90;;;;;;5131434;27;20464;-59
2024/03/31 00:12:20;;;;;;;0.43;0.20;;;12.00;99.90;;;;;;5132086;27;20509;-59
2024/03/31 00:14:46;;;;;;;2.00;0.30;;;12.10;99.90;;;;;;5130263;27;20444;-59
2024/03/31 00:17:13;;;;;;;2.10;0.40;;;12.10;99.90;;;;;;5128746;27;20554;-59
2024/03/31 00:19:41;;;;;;;1.27;0.40;;;12.10;99.90;;;;;;5130376;27;20766;-59
2024/03/31 00:22:08;;;;;;;0.50;0.20;;;12.20;99.90;;;;;;5129645;27;20453;-59
2024/03/31 00:24:34;;;;;;;2.47;0.50;;;12.10;99.90;;;;;;5127422;27;20444;-58
2024/03/31 00:27:01;;;;;;;4.00;0.40;;;12.10;99.90;;;;;;5129088;27;20435;-59
2024/03/31 00:29:27;;;;;;;1.33;0.50;;;12.00;99.90;;;;;;5128656;27;20519;-58
2024/03/31 00:31:56;;;;;;;1.40;0.43;;;12.10;99.90;;;;;;5126955;27;20858;-58
2024/03/31 00:34:22;;;;;;;0.70;0.40;;;12.10;99.90;;;;;;5127831;27;21023;-58
2024/03/31 00:36:51;;;;;;;1.47;0.40;;;11.90;99.90;;;;;;5128713;27;20498;-59
2024/03/31 00:39:17;;;;;;;1.57;0.50;;;11.80;99.90;;;;;;5127314;27;20433;-59
2024/03/31 00:41:44;;;;;;;3.07;0.40;;;11.70;99.90;;;;;;5128202;27;20877;-59
2024/03/31 00:44:10;;;;;;;7.50;0.40;;;11.60;99.90;;;;;;5129467;27;20484;-58
2024/03/31 00:46:37;;;;;;;0.87;0.40;;;11.50;99.90;;;;;;5129385;27;20850;-59
2024/03/31 00:49:03;;;;;;;2.20;0.33;;;11.50;1.00;;;;;;5128060;27;20451;-58
2024/03/31 00:51:30;;;;;;;3.60;0.50;;;11.50;1.00;;;;;;5128271;27;20448;-59
2024/03/31 00:53:58;;;;;;;2.30;0.30;;;11.50;1.00;;;;;;5127944;27;20484;-59
2024/03/31 00:56:25;;;;;;;5.00;0.60;;;11.50;1.00;;;;;;5127131;27;20498;-58
2024/03/31 00:58:51;;;;;;;3.77;0.60;;;11.50;1.00;;;;;;5126589;27;20773;-59
2024/03/31 01:01:19;;;;;;;5.37;0.70;;;11.50;1.00;;;;;;5129975;27;20517;-59
2024/03/31 01:03:45;;;;;;;4.73;0.40;;;11.60;1.00;;;;;;5127194;27;20485;-60
2024/03/31 01:06:16;;;;;;;4.90;0.50;;;11.70;1.00;;;;;;5129040;27;20437;-59
2024/03/31 01:08:43;;;;;;;2.93;0.40;;;11.70;1.00;;;;;;5127024;27;20864;-59
2024/03/31 01:11:11;;;;;;;2.97;0.53;;;11.80;1.00;;;;;;5128780;27;20448;-59
2024/03/31 01:13:38;;;;;;;8.43;0.80;;;11.80;1.00;;;;;;5125679;27;20433;-59
2024/03/31 01:16:05;;;;;;;5.03;0.60;;;11.80;1.00;;;;;;5130002;27;20445;-59
2024/03/31 01:18:32;;;;;;;0.90;0.40;;;11.80;1.00;;;;;;5126282;27;20505;-59
2024/03/31 01:20:59;;;;;;;3.00;0.90;;;11.80;1.00;;;;;;5126492;27;20429;-59
2024/03/31 01:23:29;;;;;;;1.03;0.30;;;11.80;1.00;;;;;;5129154;27;20488;-59
2024/03/31 01:26:01;;;;;;;3.47;0.50;;;11.80;1.00;;;;;;5126828;27;20535;-60
2024/03/31 01:28:28;;;;;;;3.63;0.40;;;11.80;1.00;;;;;;5127220;27;20445;-58
2024/03/31 01:30:55;;;;;;;3.27;0.30;;;11.70;1.00;;;;;;5125960;27;20536;-59
2024/03/31 01:33:21;;;;;;;0.57;0.30;;;11.70;1.00;;;;;;5126026;27;20428;-58
2024/03/31 01:35:48;;;;;;;2.53;0.30;;;11.70;1.00;;;;;;5125795;27;20440;-58
2024/03/31 01:38:14;;;;;;;1.43;0.40;;;11.60;1.00;;;;;;5126842;27;20784;-58
2024/03/31 01:40:41;;;;;;;3.30;0.40;;;11.60;1.00;;;;;;5125221;27;20441;-58
2024/03/31 01:43:09;;;;;;;1.63;0.40;;;11.70;1.00;;;;;;5124789;27;20984;-59
2024/03/31 01:45:36;;;;;;;4.30;0.50;;;11.70;1.00;;;;;;5129247;27;20448;-60
2024/03/31 01:48:02;;;;;;;1.73;0.50;;;11.80;1.00;;;;;;5125287;27;20517;-58
2024/03/31 01:50:29;;;;;;;2.00;0.30;;;11.80;1.00;;;;;;5125854;27;20436;-60
2024/03/31 01:52:55;;;;;;;10.03;0.57;;;11.80;1.00;;;;;;5127434;27;20793;-59
2024/03/31 01:55:22;;;;;;;1.90;0.60;;;11.80;1.00;;;;;;5126453;27;20453;-58
2024/03/31 01:57:49;;;;;;;2.27;0.40;;;11.70;1.00;;;;;;5127137;27;20452;-59
2024/03/31 02:00:20;;;;;;;2.30;0.40;;;11.60;1.00;;;;;;5128605;27;20705;-58
2024/03/31 02:02:46;;;;;;;1.53;0.40;;;11.70;1.00;;;;;;5126885;27;20482;-59
2024/03/31 02:05:15;;;;;;;3.00;0.50;;;11.80;1.00;;;;;;5126385;27;20436;-58
2024/03/31 02:07:41;;;;;;;2.93;0.43;;;11.70;1.00;;;;;;5129017;27;20473;-59
2024/03/31 02:10:10;;;;;;;7.40;0.50;;;11.70;1.00;;;;;;5126735;27;20494;-59
2024/03/31 02:12:37;;;;;;;1.67;0.37;;;11.80;1.00;;;;;;5128038;28;20496;-60
2024/03/31 02:15:04;;;;;;;1.50;0.40;;;11.90;1.00;;;;;;5124302;27;20450;-59
2024/03/31 02:17:32;;;;;;;5.07;0.70;;;11.80;99.90;;;;;;5127115;27;20449;-58
2024/03/31 02:19:59;;;;;;;3.47;0.40;;;11.70;99.90;;;;;;5126412;28;20518;-59
2024/03/31 02:22:25;;;;;;;4.60;0.50;;;11.80;1.00;;;;;;5131466;27;20542;-59
2024/03/31 02:24:53;;;;;;;2.70;0.40;;;12.00;1.00;;;;;;5134706;27;20885;-59
2024/03/31 02:27:20;;;;;;;1.43;0.43;;;12.00;99.90;;;;;;5134117;27;20443;-59
2024/03/31 02:29:48;;;;;;;0.90;0.30;;;12.00;99.90;;;;;;5133417;27;20858;-59
2024/03/31 02:32:14;;;;;;;4.00;0.50;;;12.00;1.00;;;;;;5131604;27;20532;-59
2024/03/31 02:34:42;;;;;;;10.50;0.60;;;12.00;1.00;;;;;;5134368;27;20551;-60
2024/03/31 02:37:09;;;;;;;9.97;0.50;;;12.00;1.00;;;;;;5133288;27;20509;-58
2024/03/31 02:39:36;;;;;;;2.63;0.50;;;11.80;1.00;;;;;;5132571;27;20444;-58
2024/03/31 02:42:03;;;;;;;3.23;0.40;;;11.60;1.00;;;;;;5133308;27;20461;-58
2024/03/31 02:44:30;;;;;;;1.90;0.63;;;11.40;1.00;;;;;;5132267;27;20920;-59
2024/03/31 02:46:56;;;;;;;1.67;0.50;;;11.40;1.00;;;;;;5132120;27;20444;-58
2024/03/31 02:49:24;;;;;;;4.07;0.43;;;11.60;1.00;;;;;;5133231;27;20456;-59
2024/03/31 02:51:51;;;;;;;1.37;0.40;;;11.50;1.00;;;;;;5133091;27;20471;-60
2024/03/31 02:54:18;;;;;;;2.27;0.40;;;11.40;1.00;;;;;;5130572;27;20451;-59
2024/03/31 02:56:46;;;;;;;4.00;0.40;;;11.40;1.00;;;;;;5132281;27;20443;-59
2024/03/31 02:59:13;;;;;;;0.70;0.40;;;11.40;1.00;;;;;;5135053;27;20451;-60
2024/03/31 03:01:41;;;;;;;4.40;0.50;;;11.60;1.00;;;;;;5132199;27;20476;-59
2024/03/31 03:04:08;;;;;;;1.80;0.37;;;11.80;1.00;;;;;;5144259;27;20479;-58
2024/03/31 03:06:34;;;;;;;1.93;0.50;;;11.80;1.00;;;;;;5143705;27;20443;-58
2024/03/31 03:09:04;;;;;;;3.57;0.50;;;11.60;1.00;;;;;;5143286;27;20943;-59
2024/03/31 03:11:30;;;;;;;1.20;0.30;;;11.50;1.00;;;;;;5143446;27;20516;-59
2024/03/31 03:13:57;;;;;;;2.80;0.40;;;11.70;1.00;;;;;;5143253;27;20546;-59
2024/03/31 03:16:24;;;;;;;0.90;0.50;;;11.70;1.00;;;;;;5125751;27;20448;-58
2024/03/31 03:18:52;;;;;;;1.70;0.40;;;11.50;1.00;;;;;;5132118;27;20456;-59
2024/03/31 03:21:17;;;;;;;4.40;0.60;;;11.40;1.00;;;;;;5128100;27;20719;-59
2024/03/31 03:23:45;;;;;;;4.10;0.40;;;11.30;1.00;;;;;;5136397;27;20467;-58
2024/03/31 03:26:12;;;;;;;4.90;0.40;;;11.30;1.00;;;;;;5142425;27;20846;-59
2024/03/31 03:28:41;;;;;;;3.70;0.50;;;11.20;1.00;;;;;;5122608;27;20555;-59
2024/03/31 03:31:07;;;;;;;3.23;0.40;;;11.20;1.00;;;;;;5122122;28;20452;-59
2024/03/31 03:33:34;;;;;;;2.00;0.40;;;11.00;1.00;;;;;;5119919;28;20458;-59
2024/03/31 03:36:03;;;;;;;1.47;0.30;;;11.00;1.00;;;;;;5131330;27;20444;-58
2024/03/31 03:38:30;;;;;;;3.13;0.40;;;11.20;1.00;;;;;;5141466;27;20504;-59
2024/03/31 03:40:58;;;;;;;1.20;0.50;;;11.20;1.00;;;;;;5123871;27;20529;-59
2024/03/31 03:43:32;;;;;;;1.37;0.30;;;11.20;1.00;;;;;;5120003;28;20978;-57
2024/03/31 03:45:59;;;;;;;7.90;0.53;;;11.20;1.00;;;;;;5124090;27;20448;-58
2024/03/31 03:48:28;;;;;;;0.53;0.30;;;11.20;1.00;;;;;;5127945;27;20885;-59
2024/03/31 03:51:00;;;;;;;2.67;0.50;;;11.20;1.00;;;;;;5119081;28;20502;-58
2024/03/31 03:53:27;;;;;;;2.17;0.50;;;11.20;1.00;;;;;;5118551;28;20476;-56
2024/03/31 03:55:54;;;;;;;2.23;0.30;;;11.20;1.00;;;;;;5130334;27;20861;-58
2024/03/31 03:58:21;;;;;;;5.40;0.47;;;11.10;1.00;;;;;;5138874;27;20456;-58
2024/03/31 04:00:48;;;;;;;2.83;0.30;;;10.80;3.20;;;;;;5132859;27;20452;-58
2024/03/31 04:03:16;;;;;;;1.10;0.40;;;10.70;22.40;;;;;;5118549;28;20479;-58
2024/03/31 04:05:52;;;;;;;3.30;0.43;;;10.60;43.70;;;;;;5124474;27;20460;-60
2024/03/31 04:08:19;;;;;;;1.80;0.47;;;10.60;57.30;;;;;;5120019;27;20436;-59
2024/03/31 04:10:45;;;;;;;1.40;0.50;;;10.50;67.20;;;;;;5138978;27;20610;-58
2024/03/31 04:13:15;;;;;;;3.17;1.00;;;10.60;86.30;;;;;;5139228;27;20476;-58
2024/03/31 04:15:42;;;;;;;5.13;0.60;;;10.60;82.00;;;;;;5139648;27;20873;-59
2024/03/31 04:18:09;;;;;;;0.93;0.60;;;10.60;80.60;;;;;;5140438;27;20500;-58
2024/03/31 04:20:41;;;;;;;5.70;0.60;;;10.40;88.50;;;;;;5139907;27;20440;-59
2024/03/31 04:23:07;;;;;;;1.20;0.63;;;10.40;99.90;;;;;;5138797;27;20491;-58
2024/03/31 04:25:34;;;;;;;1.50;0.60;;;10.40;99.90;;;;;;5139989;27;20476;-58
2024/03/31 04:28:00;;;;;;;1.70;0.50;;;10.40;99.90;;;;;;5139966;27;20860;-60
2024/03/31 04:30:27;;;;;;;1.13;0.50;;;10.40;99.90;;;;;;5140372;27;20527;-58
2024/03/31 04:32:53;;;;;;;2.03;1.13;;;10.40;99.90;;;;;;5140377;27;20448;-59
2024/03/31 04:35:22;;;;;;;1.40;0.50;;;10.50;99.90;;;;;;5139710;27;20451;-59
2024/03/31 04:37:48;;;;;;;1.73;0.47;;;10.70;99.90;;;;;;5140248;27;20456;-59
2024/03/31 04:40:15;;;;;;;2.70;0.53;;;10.80;99.90;;;;;;5139639;27;20819;-59
2024/03/31 04:42:41;;;;;;;6.20;0.60;;;10.80;99.90;;;;;;5139036;27;20501;-58
2024/03/31 04:45:09;;;;;;;0.93;0.50;;;10.70;99.90;;;;;;5139263;27;20476;-59
2024/03/31 04:47:35;;;;;;;5.23;0.70;;;10.70;99.90;;;;;;5139354;27;20455;-59
2024/03/31 04:50:01;;;;;;;1.23;0.50;;;10.70;99.90;;;;;;5139489;27;20508;-59
2024/03/31 04:52:29;;;;;;;1.23;0.50;;;10.50;99.90;;;;;;5139823;27;20852;-59
2024/03/31 04:54:56;;;;;;;2.50;0.80;;;10.40;99.90;;;;;;5139155;27;20436;-59
2024/03/31 04:57:22;;;;;;;2.50;0.80;;;10.40;99.90;;;;;;5120769;27;20505;-59
2024/03/31 04:59:49;;;;;;;2.10;0.77;;;10.50;99.90;;;;;;5131968;27;20451;-58
2024/03/31 05:02:15;;;;;;;4.07;0.80;;;10.50;99.90;;;;;;5137746;27;20452;-59
2024/03/31 05:04:42;;;;;;;2.00;0.70;;;10.70;99.90;;;;;;5138244;27;20483;-59
2024/03/31 05:07:08;;;;;;;0.80;0.40;;;10.70;99.90;;;;;;5138436;27;20906;-58
2024/03/31 05:09:37;;;;;;;2.60;0.60;;;10.70;99.90;;;;;;5137765;27;20554;-59
2024/03/31 05:12:03;;;;;;;1.60;0.67;;;10.70;99.90;;;;;;5138280;27;20455;-59
2024/03/31 05:14:30;;;;;;;2.20;0.50;;;10.80;99.90;;;;;;5139089;27;20520;-59
2024/03/31 05:16:57;;;;;;;3.03;0.87;;;10.80;99.90;;;;;;5139100;27;20909;-60
2024/03/31 05:19:24;;;;;;;10.00;0.90;;;10.90;99.90;;;;;;5139464;27;20460;-59
2024/03/31 05:21:50;;;;;;;1.43;0.70;;;11.00;99.90;;;;;;5139298;27;20512;-59
2024/03/31 05:24:18;;;;;;;8.70;1.00;;;11.00;99.90;;;;;;5138705;27;20483;-59
2024/03/31 05:26:46;;;;;;;3.10;0.70;;;10.90;99.90;;;;;;5139127;27;20455;-59
2024/03/31 05:29:13;;;;;;;3.30;0.50;;;10.90;99.90;;;;;;5139044;27;20484;-59
2024/03/31 05:31:39;;;;;;;3.87;0.70;;;11.00;99.90;;;;;;5138764;27;20485;-59
2024/03/31 05:34:06;;;;;;;1.10;0.70;;;11.10;99.90;;;;;;5138604;27;20467;-59
2024/03/31 05:36:33;;;;;;;2.40;0.60;;;11.20;99.90;;;;;;5138690;27;20868;-59
2024/03/31 05:39:00;;;;;;;2.73;0.70;;;11.20;99.90;;;;;;5138479;27;20501;-59
2024/03/31 05:41:26;;;;;;;5.63;1.10;;;11.10;99.90;;;;;;5138505;27;20447;-59
2024/03/31 05:43:54;;;;;;;3.70;0.60;;;11.10;99.90;;;;;;5138607;27;20881;-59
2024/03/31 05:46:21;;;;;;;3.30;0.67;;;11.10;99.90;;;;;;5138394;27;20500;-59
2024/03/31 05:48:48;;;;;;;1.70;0.47;;;11.10;99.90;;;;;;5137288;27;20536;-58
2024/03/31 05:51:14;;;;;;;1.00;0.70;;;11.10;99.90;;;;;;5137515;27;20448;-59
2024/03/31 05:53:41;;;;;;;4.27;0.60;;;11.10;99.90;;;;;;5137010;27;20443;-58
2024/03/31 05:56:07;;;;;;;5.90;0.60;;;11.00;99.90;;;;;;5134846;27;20459;-58
2024/03/31 05:58:35;;;;;;;0.83;0.50;;;11.00;99.90;;;;;;5134559;27;20918;-59
2024/03/31 06:01:02;;;;;;;3.00;0.60;;;11.00;99.90;;;;;;5136766;27;20483;-59
2024/03/31 06:03:29;;;;;;;1.63;0.60;;;11.00;99.90;;;;;;5128721;27;20451;-58
2024/03/31 06:05:56;;;;;;;4.30;0.70;;;10.90;99.90;;;;;;5117272;28;20512;-58
2024/03/31 06:08:23;;;;;;;5.17;0.63;;;10.90;99.90;;;;;;5117734;28;21071;-58
2024/03/31 06:10:49;;;;;;;3.47;0.90;;;10.70;99.90;;;;;;5127735;27;20471;-58
2024/03/31 06:13:16;;;;;;;1.50;0.60;;;10.70;99.90;;;;;;5137988;27;20432;-59
2024/03/31 06:15:42;;;;;;;2.00;0.90;;;10.80;99.90;;;;;;5122063;27;20870;-58
2024/03/31 06:18:10;;;;;;;2.80;1.03;;;10.80;99.90;;;;;;5117861;28;20460;-58
2024/03/31 06:20:37;;;;;;;2.13;0.60;;;10.90;99.90;;;;;;5120926;28;20872;-58
2024/03/31 06:23:04;;;;;;;2.33;0.97;;;10.90;99.90;;;;;;5137325;28;20462;-58
2024/03/31 06:25:30;;;;;;;1.37;0.40;;;10.80;99.90;;;;;;5136885;28;20479;-58
2024/03/31 06:27:57;;;;;;;7.23;0.60;;;10.90;99.90;;;;;;5137627;28;20443;-58
2024/03/31 06:30:23;;;;;;;3.30;0.60;;;11.00;99.90;;;;;;5119667;28;20517;-59
2024/03/31 06:32:50;;;;;;;1.67;0.60;;;11.00;99.90;;;;;;5117375;28;20449;-57
2024/03/31 06:35:18;;;;;;;1.17;0.50;;;11.00;99.90;;;;;;5117305;28;20457;-57
2024/03/31 06:37:45;;;;;;;3.37;0.50;;;11.10;99.90;;;;;;5117924;28;20745;-58
2024/03/31 06:40:11;;;;;;;1.10;0.53;;;11.30;99.90;;;;;;5117378;28;20461;-58
2024/03/31 06:42:38;;;;;;;3.83;0.90;;;11.50;99.90;;;;;;5122017;28;20446;-58
2024/03/31 06:45:04;;;;;;;6.50;0.60;;;11.30;99.90;;;;;;5117204;28;21162;-57
2024/03/31 06:47:31;;;;;;;2.97;1.03;;;11.40;99.90;;;;;;5117144;28;20505;-58
2024/03/31 06:49:57;;;;;;;3.80;0.80;;;11.60;99.90;;;;;;5116835;28;20505;-58
2024/03/31 06:52:26;;;;;;;2.30;0.53;;;11.60;99.90;;;;;;5125255;28;20828;-58
2024/03/31 06:54:53;;;;;;;5.13;0.77;;;11.70;99.90;;;;;;5137612;28;20440;-59
2024/03/31 06:57:20;;;;;;;2.80;0.57;;;11.60;99.90;;;;;;5137011;28;20467;-58
2024/03/31 06:59:46;;;;;;;1.13;0.50;;;11.50;99.90;;;;;;5117508;28;20752;-58
2024/03/31 07:02:13;;;;;;;3.10;1.00;;;11.30;99.90;;;;;;5117312;28;20505;-58
2024/03/31 07:04:39;;;;;;;2.97;0.60;;;11.10;99.90;;;;;;5116852;28;20763;-58
2024/03/31 07:07:06;;;;;;;1.90;0.50;;;11.00;99.90;;;;;;5117585;28;20451;-58
2024/03/31 07:09:33;;;;;;;2.83;0.60;;;11.00;99.90;;;;;;5130114;27;20778;-58
2024/03/31 07:12:00;;;;;;;6.60;0.80;;;11.00;99.90;;;;;;5141111;27;20452;-59
2024/03/31 07:14:26;;;;;;;3.40;0.60;;;11.10;99.90;;;;;;5140737;27;20447;-58
2024/03/31 07:16:53;;;;;;;1.60;0.60;;;11.30;99.90;;;;;;5140986;27;20454;-58
2024/03/31 07:19:19;;;;;;;7.57;0.63;;;11.60;99.90;;;;;;5141285;27;20500;-58
2024/03/31 07:21:46;;;;;;;3.03;0.60;;;11.60;99.90;;;;;;5140839;27;20849;-58
2024/03/31 07:24:12;;;;;;;3.23;0.60;;;11.60;99.90;;;;;;5141521;27;20937;-59
2024/03/31 07:26:40;;;;;;;2.87;0.70;;;11.60;99.90;;;;;;5140909;27;20439;-58
2024/03/31 07:29:06;;;;;;;11.00;0.60;;;11.40;99.90;;;;;;5140442;27;20452;-58
2024/03/31 07:31:33;;;;;;;2.30;0.73;;;11.60;99.90;;;;;;5139826;27;20536;-58
2024/03/31 07:34:00;;;;;;;2.77;0.70;;;11.60;99.90;;;;;;5140516;27;20447;-58
2024/03/31 07:36:27;;;;;;;4.83;0.73;;;11.50;99.90;;;;;;5141686;27;20583;-58
2024/03/31 07:38:53;;;;;;;1.17;0.40;;;11.60;99.90;;;;;;5140381;27;20447;-59
2024/03/31 07:41:19;;;;;;;2.00;0.70;;;11.50;99.90;;;;;;5140113;27;20504;-58
2024/03/31 07:43:47;;;;;;;2.20;0.50;;;11.70;99.90;;;;;;5139746;27;20508;-58
2024/03/31 07:46:14;;;;;;;2.63;0.50;;;11.70;99.90;;;;;;5140471;27;20451;-58
2024/03/31 07:48:40;;;;;;;0.80;0.47;;;11.80;99.90;;;;;;5138100;27;20428;-58
2024/03/31 07:51:07;;;;;;;7.63;0.60;;;11.90;99.90;;;;;;5138877;27;20454;-58
2024/03/31 07:53:33;;;;;;;4.70;0.50;;;11.90;99.90;;;;;;5139666;27;20508;-58
2024/03/31 07:56:01;;;;;;;2.23;0.50;;;11.90;99.90;;;;;;5140227;27;20444;-59
2024/03/31 07:58:27;;;;;;;2.40;0.40;;;12.00;99.90;;;;;;5139917;27;20455;-59
2024/03/31 08:00:56;;;;;;;1.83;0.50;;;12.10;99.90;;;;;;5141016;27;20439;-58
2024/03/31 08:03:23;;;;;;;1.03;0.40;;;12.30;99.90;;;;;;5140168;27;20448;-59
2024/03/31 08:05:50;;;;;;;2.73;0.50;;;12.50;99.90;;;;;;5140611;27;20511;-59
2024/03/31 08:08:16;;;;;;;10.37;0.60;;;12.60;99.90;;;;;;5140755;27;20950;-59
2024/03/31 08:10:43;;;;;;;2.50;0.47;;;12.60;99.90;;;;;;5139869;27;20483;-58
2024/03/31 08:13:10;;;;;;;3.93;0.40;;;12.60;99.90;;;;;;5139431;27;20557;-59
2024/03/31 08:15:37;;;;;;;1.70;0.47;;;12.70;99.90;;;;;;5139865;27;20456;-59
2024/03/31 08:18:06;;;;;;;2.40;0.40;;;12.60;99.90;;;;;;5138964;27;20459;-59
2024/03/31 08:20:33;;;;;;;2.37;0.50;;;12.80;99.90;;;;;;5139486;27;20532;-59
2024/03/31 08:22:59;;;;;;;5.20;0.50;;;12.80;99.90;;;;;;5139799;27;20511;-59
2024/03/31 08:25:26;;;;;;;2.10;0.40;;;12.90;99.90;;;;;;5139222;27;20932;-58
2024/03/31 08:27:52;;;;;;;2.60;0.60;;;13.00;99.90;;;;;;5138423;27;20443;-59
2024/03/31 08:30:19;;;;;;;1.80;0.33;;;13.20;99.90;;;;;;5139220;27;20463;-59
2024/03/31 08:32:45;;;;;;;0.70;0.20;;;13.40;99.90;;;;;;5138458;27;20451;-59
2024/03/31 08:35:14;;;;;;;4.10;0.70;;;13.60;99.90;;;;;;5139398;27;20517;-58
2024/03/31 08:37:40;;;;;;;2.30;0.83;;;13.70;99.90;;;;;;5137781;27;20451;-59
2024/03/31 08:40:08;;;;;;;0.70;0.30;;;13.80;99.90;;;;;;5137933;27;20439;-58
2024/03/31 08:42:41;;;;;;;0.60;0.30;;;13.80;99.90;;;;;;5139445;27;20528;-59
2024/03/31 08:45:12;;;;;;;5.17;0.40;;;13.90;99.90;;;;;;5139962;27;20480;-58
2024/03/31 08:47:42;;;;;;;1.10;0.20;;;13.80;99.90;;;;;;5137612;27;20447;-58
2024/03/31 08:50:09;;;;;;;0.60;0.30;;;13.90;99.90;;;;;;5139029;27;20448;-59
2024/03/31 08:52:36;;;;;;;4.50;0.40;;;13.90;99.90;;;;;;5137065;27;20528;-59
2024/03/31 08:55:05;;;;;;;6.10;0.43;;;14.10;99.90;;;;;;5138333;27;20443;-58
2024/03/31 08:57:32;;;;;;;2.60;0.40;;;14.10;99.90;;;;;;5138957;27;20454;-58
2024/03/31 08:59:59;;;;;;;3.97;0.47;;;14.20;99.90;;;;;;5138918;27;20455;-58
2024/03/31 09:02:25;;;;;;;5.03;0.43;;;14.30;99.90;;;;;;5138353;27;20447;-58
2024/03/31 09:04:53;;;;;;;0.80;0.40;;;14.40;99.90;;;;;;5138384;27;20577;-58
2024/03/31 09:07:20;;;;;;;2.10;0.40;;;14.40;99.90;;;;;;5135913;27;20444;-58
2024/03/31 09:09:49;;;;;;;1.17;0.30;;;14.50;99.90;;;;;;5138206;27;20506;-58
2024/03/31 09:12:15;;;;;;;3.30;0.33;;;14.60;99.90;;;;;;5122724;27;20459;-58
2024/03/31 09:14:42;;;;;;;0.53;0.30;;;14.60;99.90;;;;;;5135804;27;20535;-58
2024/03/31 09:17:09;;;;;;;3.17;0.40;;;14.60;99.90;;;;;;5138020;27;20444;-58
2024/03/31 09:19:36;;;;;;;1.20;0.30;;;14.60;99.90;;;;;;5138538;27;20451;-58
2024/03/31 09:22:02;;;;;;;4.30;0.50;;;14.80;99.90;;;;;;5135806;27;20753;-58
2024/03/31 09:24:30;;;;;;;1.27;0.40;;;15.00;99.90;;;;;;5137791;27;20475;-58
2024/03/31 09:26:58;;;;;;;4.60;0.50;;;15.00;99.90;;;;;;5135997;27;20444;-57
2024/03/31 09:29:26;;;;;;;3.00;0.40;;;14.90;99.90;;;;;;5138307;27;20478;-57
2024/03/31 09:32:02;;;;;;;5.60;0.50;;;15.00;99.90;;;;;;5135598;27;20451;-57
2024/03/31 09:34:29;;;;;;;2.97;0.40;;;15.10;99.90;;;;;;5136602;27;20451;-57
2024/03/31 09:36:56;;;;;;;1.23;0.30;;;15.10;99.90;;;;;;5130719;27;20449;-58
2024/03/31 09:39:23;;;;;;;1.00;0.30;;;15.20;99.90;;;;;;5116877;28;20465;-58
2024/03/31 09:41:51;;;;;;;0.83;0.30;;;15.20;99.90;;;;;;5117553;27;20559;-58
2024/03/31 09:44:19;;;;;;;2.50;0.50;;;15.50;99.90;;;;;;5116613;28;20901;-59
2024/03/31 09:46:46;;;;;;;1.27;0.30;;;15.60;99.90;;;;;;5119322;27;20440;-58
2024/03/31 09:49:18;;;;;;;3.60;0.30;;;15.60;99.90;;;;;;5114253;28;20876;-58
2024/03/31 09:51:48;;;;;;;1.90;0.40;;;15.70;99.90;;;;;;5117215;27;20777;-58
2024/03/31 09:54:23;;;;;;;0.60;0.40;;;15.80;99.90;;;;;;5129774;27;20874;-58
2024/03/31 09:56:56;;;;;;;0.77;0.30;;;16.00;99.90;;;;;;5123564;27;20441;-59
2024/03/31 09:59:26;;;;;;;1.00;0.40;;;16.10;99.90;;;;;;5128799;27;20449;-58
2024/03/31 10:01:55;;;;;;;4.50;0.40;;;16.00;99.90;;;;;;5116037;28;20893;-59
2024/03/31 10:04:33;;;;;;;8.33;0.30;;;16.00;99.90;;;;;;5116340;28;20485;-58
2024/03/31 10:06:59;;;;;;;4.40;0.50;;;16.10;99.90;;;;;;5117514;28;20498;-58
2024/03/31 10:09:27;;;;;;;3.13;0.40;;;16.40;99.90;;;;;;5125027;27;20478;-58
2024/03/31 10:11:53;;;;;;;0.80;0.27;;;16.70;99.90;;;;;;5138592;27;20464;-58
2024/03/31 10:14:22;;;;;;;3.80;0.43;;;17.10;99.90;;;;;;5137851;27;20455;-59
2024/03/31 10:16:51;;;;;;;2.37;0.40;;;17.20;99.90;;;;;;5137334;27;20451;-59
2024/03/31 10:19:18;;;;;;;2.20;0.40;;;17.30;99.90;;;;;;5137089;27;20876;-59
2024/03/31 10:21:47;;;;;;;5.10;0.40;;;17.50;99.90;;;;;;5137874;28;20444;-59
2024/03/31 10:24:18;;;;;;;0.77;0.40;;;17.60;99.90;;;;;;5136179;28;20451;-59
2024/03/31 10:26:46;;;;;;;1.10;0.30;;;17.80;99.90;;;;;;5138275;28;20511;-59
2024/03/31 10:29:14;;;;;;;5.03;0.40;;;17.90;99.90;;;;;;5138763;28;20469;-58
2024/03/31 10:31:40;;;;;;;5.10;0.33;;;18.10;99.90;;;;;;5137257;28;20502;-59
2024/03/31 10:34:08;;;;;;;3.30;0.60;;;18.20;99.90;;;;;;5136026;28;20451;-59
2024/03/31 10:36:36;;;;;;;2.93;0.40;;;18.10;99.90;;;;;;5138068;28;20440;-59
2024/03/31 10:39:04;;;;;;;2.87;0.30;;;18.40;99.90;;;;;;5137882;28;20730;-58
2024/03/31 10:41:30;;;;;;;1.20;0.40;;;18.80;99.90;;;;;;5137628;28;20447;-59
2024/03/31 10:43:57;;;;;;;0.70;0.30;;;19.00;99.90;;;;;;5138760;27;20875;-58
2024/03/31 10:46:23;;;;;;;0.80;0.30;;;18.80;99.90;;;;;;5139452;27;20484;-58
2024/03/31 10:48:57;;;;;;;1.73;0.43;;;18.70;99.90;;;;;;5138996;27;20500;-60
2024/03/31 10:51:25;;;;;;;1.50;0.30;;;18.60;99.90;;;;;;5138361;27;20456;-59
2024/03/31 10:53:52;;;;;;;1.13;0.30;;;18.80;99.90;;;;;;5139301;27;20463;-59
2024/03/31 10:56:25;;;;;;;2.60;0.50;;;18.80;99.90;;;;;;5138881;27;20444;-58
2024/03/31 10:58:52;;;;;;;3.83;0.30;;;18.90;99.90;;;;;;5140140;27;20508;-59
2024/03/31 11:01:18;;;;;;;3.50;0.47;;;18.80;99.90;;;;;;5138707;27;20465;-59
2024/03/31 11:03:46;;;;;;;1.80;0.40;;;18.80;99.90;;;;;;5141399;27;20865;-59
2024/03/31 11:06:14;;;;;;;3.20;0.40;;;18.80;99.90;;;;;;5141522;27;20493;-58
2024/03/31 11:08:45;;;;;;;4.60;0.40;;;18.80;99.90;;;;;;5140387;27;20511;-59
2024/03/31 11:11:12;;;;;;;3.23;0.40;;;18.70;99.90;;;;;;5140554;27;20444;-59
2024/03/31 11:13:39;;;;;;;0.80;0.27;;;18.50;99.90;;;;;;5139460;27;20448;-59
2024/03/31 11:16:08;;;;;;;1.17;0.30;;;18.50;99.90;;;;;;5139194;27;20452;-59
2024/03/31 11:18:35;;;;;;;1.43;0.20;;;18.00;99.90;;;;;;5137980;27;20513;-59
2024/03/31 11:21:08;;;;;;;3.90;0.20;;;17.90;99.90;;;;;;5138160;27;20865;-59
2024/03/31 11:23:38;;;;;;;5.67;0.40;;;17.70;99.90;;;;;;5137245;27;20447;-59
2024/03/31 11:26:06;;;;;;;0.77;0.20;;;17.90;99.90;;;;;;5136748;27;20997;-58
2024/03/31 11:28:34;;;;;;;2.17;0.33;;;18.00;99.90;;;;;;5135535;27;20451;-59
2024/03/31 11:31:01;;;;;;;1.17;0.40;;;17.90;99.90;;;;;;5136136;27;20737;-56
2024/03/31 11:33:29;;;;;;;0.67;0.20;;;17.80;99.90;;;;;;5136961;27;20553;-59
2024/03/31 11:35:56;;;;;;;3.03;0.30;;;17.80;99.90;;;;;;5138307;27;20436;-59
2024/03/31 11:38:24;;;;;;;2.27;0.30;;;17.70;99.90;;;;;;5139147;27;21016;-58
2024/03/31 11:40:50;;;;;;;2.57;0.30;;;17.80;99.90;;;;;;5138729;27;20451;-59
2024/03/31 11:43:19;;;;;;;3.13;0.50;;;17.80;99.90;;;;;;5139159;27;20440;-58
2024/03/31 11:45:45;;;;;;;1.60;0.20;;;17.80;99.90;;;;;;5138984;27;20695;-59
2024/03/31 11:48:12;;;;;;;3.10;0.20;;;18.00;99.90;;;;;;5138225;27;20505;-59
2024/03/31 11:50:40;;;;;;;2.07;0.40;;;18.30;99.90;;;;;;5137956;27;20451;-59
2024/03/31 11:53:07;;;;;;;8.20;0.40;;;18.70;99.90;;;;;;5139084;27;20466;-59
2024/03/31 11:55:33;;;;;;;2.93;0.30;;;19.10;99.90;;;;;;5138690;27;20546;-60
2024/03/31 11:58:02;;;;;;;1.63;0.30;;;19.30;99.90;;;;;;5139391;27;20781;-59
2024/03/31 12:00:30;;;;;;;6.77;0.47;;;19.50;99.90;;;;;;5139775;27;20477;-60
2024/03/31 12:03:04;;;;;;;5.93;0.50;;;20.00;99.90;;;;;;5140410;27;20458;-59
2024/03/31 12:05:31;;;;;;;0.60;0.30;;;20.00;99.90;;;;;;5140190;27;20483;-59
2024/03/31 12:07:58;;;;;;;8.10;0.53;;;19.90;99.90;;;;;;5140259;27;20858;-59
2024/03/31 12:10:25;;;;;;;1.40;0.33;;;19.90;99.90;;;;;;5138937;27;20546;-59
2024/03/31 12:12:52;;;;;;;4.20;0.40;;;19.60;99.90;;;;;;5138286;27;20533;-58
2024/03/31 12:15:19;;;;;;;4.30;0.40;;;19.10;99.90;;;;;;5140411;27;20448;-58
2024/03/31 12:17:57;;;;;;;3.13;0.40;;;19.10;99.90;;;;;;5140625;27;20447;-59
2024/03/31 12:20:23;;;;;;;3.23;0.40;;;19.20;99.90;;;;;;5139772;27;20523;-59
2024/03/31 12:22:51;;;;;;;1.33;0.33;;;19.40;99.90;;;;;;5139800;27;20483;-58
2024/03/31 12:25:18;;;;;;;2.67;0.40;;;19.40;99.90;;;;;;5139248;27;20479;-62
2024/03/31 12:27:46;;;;;;;1.23;0.33;;;19.40;99.90;;;;;;5139979;27;20507;-58
2024/03/31 12:30:13;;;;;;;2.93;0.30;;;19.20;99.90;;;;;;5139492;27;20459;-59
2024/03/31 12:32:40;;;;;;;1.60;0.20;;;19.10;99.90;;;;;;5139898;27;20457;-58
2024/03/31 12:35:08;;;;;;;3.40;0.37;;;19.10;99.90;;;;;;5139566;27;20533;-58
2024/03/31 12:37:38;;;;;;;6.23;0.50;;;19.20;99.90;;;;;;5137744;27;20456;-59
2024/03/31 12:40:06;;;;;;;7.03;0.43;;;19.20;99.90;;;;;;5137844;27;20856;-58
2024/03/31 12:42:38;;;;;;;5.60;0.40;;;19.30;99.90;;;;;;5137473;27;20481;-59
2024/03/31 12:45:05;;;;;;;1.67;0.50;;;19.60;99.90;;;;;;5136992;27;20491;-59
2024/03/31 12:47:33;;;;;;;2.20;0.40;;;19.80;99.90;;;;;;5138285;27;20754;-59